Mullen, Nebraska
Current Conditions -  °F | °C
As of 6:15 AM on Sunday 21 Dec 2014 (Local Time) from KTIF Reporting Station
Clear Clear  
Wind Chill: 27°   Ceiling: Unl
Heat Index: 31°   Visibility: 10mi
Dew Point: 27°   Wind: 5mph
Humidity: 83%   Direction: 220°SW
Pressure: 29.71"   Gusts: NA
Location:  42.04°N, 101.04°W
Report Text: KTIF 211315Z AUTO 22004KT 10SM CLR 00/M03 A2971 RMK AO2 T10031029
Loading
Personal Weather Stations






























Interactive Weather Map New forecast layout! Learn more

10-Day Weather Forecast

Advertisements
Track Severe Weather on mobile